sensor_id;sensor_type;location;lat;lon;timestamp;P1;durP1;ratioP1;P2;durP2;ratioP2
12059;SDS011;6091;51.432;6.880;2022-07-23T00:00:26;1.50;;;1.40;;
12059;SDS011;6091;51.432;6.880;2022-07-23T00:02:53;1.58;;;1.48;;
12059;SDS011;6091;51.432;6.880;2022-07-23T00:05:20;2.10;;;1.65;;
12059;SDS011;6091;51.432;6.880;2022-07-23T00:07:47;1.70;;;1.60;;
12059;SDS011;6091;51.432;6.880;2022-07-23T00:10:14;1.45;;;1.30;;
12059;SDS011;6091;51.432;6.880;2022-07-23T00:12:41;1.38;;;1.27;;
12059;SDS011;6091;51.432;6.880;2022-07-23T00:15:17;2.15;;;1.70;;
12059;SDS011;6091;51.432;6.880;2022-07-23T00:17:45;1.60;;;1.50;;
12059;SDS011;6091;51.432;6.880;2022-07-23T00:20:12;1.58;;;1.48;;
12059;SDS011;6091;51.432;6.880;2022-07-23T00:22:50;1.70;;;1.60;;
12059;SDS011;6091;51.432;6.880;2022-07-23T00:25:20;2.03;;;1.58;;
12059;SDS011;6091;51.432;6.880;2022-07-23T00:27:55;1.80;;;1.58;;
12059;SDS011;6091;51.432;6.880;2022-07-23T00:30:27;1.80;;;1.70;;
12059;SDS011;6091;51.432;6.880;2022-07-23T00:32:57;1.73;;;1.60;;
12059;SDS011;6091;51.432;6.880;2022-07-23T00:35:31;1.92;;;1.80;;
12059;SDS011;6091;51.432;6.880;2022-07-23T00:38:02;1.80;;;1.70;;
12059;SDS011;6091;51.432;6.880;2022-07-23T00:40:31;2.00;;;1.80;;
12059;SDS011;6091;51.432;6.880;2022-07-23T00:42:58;2.10;;;1.88;;
12059;SDS011;6091;51.432;6.880;2022-07-23T00:45:26;1.70;;;1.50;;
12059;SDS011;6091;51.432;6.880;2022-07-23T00:47:54;1.75;;;1.50;;
12059;SDS011;6091;51.432;6.880;2022-07-23T00:50:21;1.58;;;1.48;;
12059;SDS011;6091;51.432;6.880;2022-07-23T00:52:49;1.83;;;1.65;;
12059;SDS011;6091;51.432;6.880;2022-07-23T00:55:19;1.95;;;1.40;;
12059;SDS011;6091;51.432;6.880;2022-07-23T00:57:46;1.63;;;1.40;;
12059;SDS011;6091;51.432;6.880;2022-07-23T01:00:19;1.83;;;1.58;;
12059;SDS011;6091;51.432;6.880;2022-07-23T01:02:49;2.00;;;1.90;;
12059;SDS011;6091;51.432;6.880;2022-07-23T01:05:16;2.30;;;1.60;;
12059;SDS011;6091;51.432;6.880;2022-07-23T01:07:51;2.00;;;1.83;;
12059;SDS011;6091;51.432;6.880;2022-07-23T01:10:21;1.83;;;1.48;;
12059;SDS011;6091;51.432;6.880;2022-07-23T01:12:59;2.28;;;1.70;;
12059;SDS011;6091;51.432;6.880;2022-07-23T01:15:28;1.63;;;1.52;;
12059;SDS011;6091;51.432;6.880;2022-07-23T01:17:56;1.48;;;1.38;;
12059;SDS011;6091;51.432;6.880;2022-07-23T01:20:23;1.90;;;1.80;;
12059;SDS011;6091;51.432;6.880;2022-07-23T01:22:50;1.83;;;1.73;;
12059;SDS011;6091;51.432;6.880;2022-07-23T01:25:19;2.05;;;1.60;;
12059;SDS011;6091;51.432;6.880;2022-07-23T01:27:47;1.75;;;1.65;;
12059;SDS011;6091;51.432;6.880;2022-07-23T01:30:15;1.83;;;1.70;;
12059;SDS011;6091;51.432;6.880;2022-07-23T01:32:42;2.20;;;1.50;;
12059;SDS011;6091;51.432;6.880;2022-07-23T01:35:09;2.13;;;1.95;;
12059;SDS011;6091;51.432;6.880;2022-07-23T01:37:36;1.85;;;1.75;;
12059;SDS011;6091;51.432;6.880;2022-07-23T01:40:04;2.10;;;1.90;;
12059;SDS011;6091;51.432;6.880;2022-07-23T01:42:32;3.38;;;1.92;;
12059;SDS011;6091;51.432;6.880;2022-07-23T01:45:00;1.55;;;1.45;;
12059;SDS011;6091;51.432;6.880;2022-07-23T01:47:27;1.80;;;1.70;;
12059;SDS011;6091;51.432;6.880;2022-07-23T01:49:54;1.67;;;1.58;;
12059;SDS011;6091;51.432;6.880;2022-07-23T01:52:21;1.85;;;1.60;;
12059;SDS011;6091;51.432;6.880;2022-07-23T01:54:48;1.77;;;1.67;;
12059;SDS011;6091;51.432;6.880;2022-07-23T01:57:15;1.77;;;1.65;;
12059;SDS011;6091;51.432;6.880;2022-07-23T01:59:42;2.13;;;2.00;;
12059;SDS011;6091;51.432;6.880;2022-07-23T02:02:09;1.58;;;1.45;;
12059;SDS011;6091;51.432;6.880;2022-07-23T02:04:36;2.05;;;1.88;;
12059;SDS011;6091;51.432;6.880;2022-07-23T02:07:03;1.35;;;1.30;;
12059;SDS011;6091;51.432;6.880;2022-07-23T02:09:31;1.52;;;1.42;;
12059;SDS011;6091;51.432;6.880;2022-07-23T02:11:59;1.60;;;1.50;;
12059;SDS011;6091;51.432;6.880;2022-07-23T02:14:27;2.05;;;1.90;;
12059;SDS011;6091;51.432;6.880;2022-07-23T02:16:54;1.98;;;1.88;;
12059;SDS011;6091;51.432;6.880;2022-07-23T02:19:21;1.52;;;1.42;;
12059;SDS011;6091;51.432;6.880;2022-07-23T02:21:48;1.48;;;1.38;;
12059;SDS011;6091;51.432;6.880;2022-07-23T02:24:15;1.60;;;1.50;;
12059;SDS011;6091;51.432;6.880;2022-07-23T02:26:43;1.70;;;1.60;;
12059;SDS011;6091;51.432;6.880;2022-07-23T02:29:10;1.50;;;1.40;;
12059;SDS011;6091;51.432;6.880;2022-07-23T02:31:37;1.50;;;1.40;;
12059;SDS011;6091;51.432;6.880;2022-07-23T02:34:04;2.08;;;1.95;;
12059;SDS011;6091;51.432;6.880;2022-07-23T02:36:33;1.70;;;1.60;;
12059;SDS011;6091;51.432;6.880;2022-07-23T02:39:00;2.20;;;1.92;;
12059;SDS011;6091;51.432;6.880;2022-07-23T02:41:27;1.75;;;1.65;;
12059;SDS011;6091;51.432;6.880;2022-07-23T02:43:54;1.67;;;1.58;;
12059;SDS011;6091;51.432;6.880;2022-07-23T02:46:21;1.80;;;1.70;;
12059;SDS011;6091;51.432;6.880;2022-07-23T02:48:48;1.70;;;1.60;;
12059;SDS011;6091;51.432;6.880;2022-07-23T02:51:15;1.52;;;1.42;;
12059;SDS011;6091;51.432;6.880;2022-07-23T02:53:42;1.80;;;1.70;;
12059;SDS011;6091;51.432;6.880;2022-07-23T02:56:09;2.00;;;1.70;;
12059;SDS011;6091;51.432;6.880;2022-07-23T02:58:36;1.65;;;1.52;;
12059;SDS011;6091;51.432;6.880;2022-07-23T03:01:05;1.70;;;1.60;;
12059;SDS011;6091;51.432;6.880;2022-07-23T03:03:32;1.58;;;1.48;;
12059;SDS011;6091;51.432;6.880;2022-07-23T03:05:59;1.75;;;1.65;;
12059;SDS011;6091;51.432;6.880;2022-07-23T03:08:26;1.55;;;1.45;;
12059;SDS011;6091;51.432;6.880;2022-07-23T03:10:53;1.52;;;1.38;;
12059;SDS011;6091;51.432;6.880;2022-07-23T03:13:20;1.33;;;1.23;;
12059;SDS011;6091;51.432;6.880;2022-07-23T03:15:47;1.50;;;1.40;;
12059;SDS011;6091;51.432;6.880;2022-07-23T03:18:14;2.05;;;1.38;;
12059;SDS011;6091;51.432;6.880;2022-07-23T03:20:41;1.90;;;1.42;;
12059;SDS011;6091;51.432;6.880;2022-07-23T03:23:08;1.50;;;1.40;;
12059;SDS011;6091;51.432;6.880;2022-07-23T03:25:35;1.60;;;1.50;;
12059;SDS011;6091;51.432;6.880;2022-07-23T03:28:02;1.85;;;1.75;;
12059;SDS011;6091;51.432;6.880;2022-07-23T03:30:29;1.63;;;1.35;;
12059;SDS011;6091;51.432;6.880;2022-07-23T03:32:57;1.50;;;1.40;;
12059;SDS011;6091;51.432;6.880;2022-07-23T03:35:24;2.60;;;1.67;;
12059;SDS011;6091;51.432;6.880;2022-07-23T03:37:51;1.63;;;1.52;;
12059;SDS011;6091;51.432;6.880;2022-07-23T03:40:18;1.92;;;1.73;;
12059;SDS011;6091;51.432;6.880;2022-07-23T03:42:45;1.60;;;1.50;;
12059;SDS011;6091;51.432;6.880;2022-07-23T03:45:12;1.92;;;1.50;;
12059;SDS011;6091;51.432;6.880;2022-07-23T03:47:39;1.50;;;1.40;;
12059;SDS011;6091;51.432;6.880;2022-07-23T03:50:07;1.30;;;1.30;;
12059;SDS011;6091;51.432;6.880;2022-07-23T03:52:34;1.63;;;1.52;;
12059;SDS011;6091;51.432;6.880;2022-07-23T03:55:02;1.60;;;1.50;;
12059;SDS011;6091;51.432;6.880;2022-07-23T03:57:30;1.50;;;1.40;;
12059;SDS011;6091;51.432;6.880;2022-07-23T03:59:57;1.50;;;1.40;;
12059;SDS011;6091;51.432;6.880;2022-07-23T04:02:24;1.50;;;1.38;;
12059;SDS011;6091;51.432;6.880;2022-07-23T04:04:51;1.67;;;1.25;;
12059;SDS011;6091;51.432;6.880;2022-07-23T04:07:18;1.60;;;1.50;;
12059;SDS011;6091;51.432;6.880;2022-07-23T04:09:45;1.63;;;1.52;;
12059;SDS011;6091;51.432;6.880;2022-07-23T04:12:13;1.55;;;1.45;;
12059;SDS011;6091;51.432;6.880;2022-07-23T04:14:40;1.60;;;1.50;;
12059;SDS011;6091;51.432;6.880;2022-07-23T04:17:07;2.55;;;1.55;;
12059;SDS011;6091;51.432;6.880;2022-07-23T04:19:34;1.70;;;1.60;;
12059;SDS011;6091;51.432;6.880;2022-07-23T04:22:06;1.67;;;1.58;;
12059;SDS011;6091;51.432;6.880;2022-07-23T04:24:34;1.73;;;1.63;;
12059;SDS011;6091;51.432;6.880;2022-07-23T04:27:07;2.03;;;1.65;;
12059;SDS011;6091;51.432;6.880;2022-07-23T04:29:34;1.50;;;1.40;;
12059;SDS011;6091;51.432;6.880;2022-07-23T04:32:02;1.38;;;1.27;;
12059;SDS011;6091;51.432;6.880;2022-07-23T04:34:29;1.40;;;1.30;;
12059;SDS011;6091;51.432;6.880;2022-07-23T04:36:56;1.58;;;1.48;;
12059;SDS011;6091;51.432;6.880;2022-07-23T04:39:25;1.45;;;1.35;;
12059;SDS011;6091;51.432;6.880;2022-07-23T04:41:53;1.65;;;1.55;;
12059;SDS011;6091;51.432;6.880;2022-07-23T04:44:19;1.60;;;1.50;;
12059;SDS011;6091;51.432;6.880;2022-07-23T04:46:47;1.48;;;1.30;;
12059;SDS011;6091;51.432;6.880;2022-07-23T04:49:16;1.40;;;1.30;;
12059;SDS011;6091;51.432;6.880;2022-07-23T04:51:44;1.38;;;1.27;;
12059;SDS011;6091;51.432;6.880;2022-07-23T04:54:11;1.60;;;1.50;;
12059;SDS011;6091;51.432;6.880;2022-07-23T04:56:38;1.15;;;1.05;;
12059;SDS011;6091;51.432;6.880;2022-07-23T04:59:05;2.10;;;1.35;;
12059;SDS011;6091;51.432;6.880;2022-07-23T05:01:32;1.50;;;1.40;;
12059;SDS011;6091;51.432;6.880;2022-07-23T05:03:59;1.40;;;1.30;;
12059;SDS011;6091;51.432;6.880;2022-07-23T05:06:26;1.35;;;1.27;;
12059;SDS011;6091;51.432;6.880;2022-07-23T05:08:53;1.00;;;1.00;;
12059;SDS011;6091;51.432;6.880;2022-07-23T05:11:21;1.77;;;1.52;;
12059;SDS011;6091;51.432;6.880;2022-07-23T05:13:52;1.58;;;1.27;;
12059;SDS011;6091;51.432;6.880;2022-07-23T05:16:23;1.45;;;1.35;;
12059;SDS011;6091;51.432;6.880;2022-07-23T05:18:50;1.60;;;1.38;;
12059;SDS011;6091;51.432;6.880;2022-07-23T05:21:17;1.70;;;1.50;;
12059;SDS011;6091;51.432;6.880;2022-07-23T05:23:44;1.50;;;1.40;;
12059;SDS011;6091;51.432;6.880;2022-07-23T05:26:11;1.58;;;1.40;;
12059;SDS011;6091;51.432;6.880;2022-07-23T05:28:38;2.15;;;1.60;;
12059;SDS011;6091;51.432;6.880;2022-07-23T05:31:05;1.42;;;1.30;;
12059;SDS011;6091;51.432;6.880;2022-07-23T05:33:33;1.58;;;1.45;;
12059;SDS011;6091;51.432;6.880;2022-07-23T05:36:03;1.50;;;1.40;;
12059;SDS011;6091;51.432;6.880;2022-07-23T05:38:31;1.40;;;1.30;;
12059;SDS011;6091;51.432;6.880;2022-07-23T05:41:02;1.33;;;1.23;;
12059;SDS011;6091;51.432;6.880;2022-07-23T05:43:29;1.40;;;1.30;;
12059;SDS011;6091;51.432;6.880;2022-07-23T05:45:56;1.40;;;1.20;;
12059;SDS011;6091;51.432;6.880;2022-07-23T05:48:23;1.70;;;1.60;;
12059;SDS011;6091;51.432;6.880;2022-07-23T05:50:50;1.50;;;1.40;;
12059;SDS011;6091;51.432;6.880;2022-07-23T05:53:18;1.60;;;1.50;;
12059;SDS011;6091;51.432;6.880;2022-07-23T05:55:45;1.55;;;1.45;;
12059;SDS011;6091;51.432;6.880;2022-07-23T05:58:12;1.40;;;1.30;;
12059;SDS011;6091;51.432;6.880;2022-07-23T06:00:41;1.70;;;1.60;;
12059;SDS011;6091;51.432;6.880;2022-07-23T06:03:08;1.42;;;1.33;;
12059;SDS011;6091;51.432;6.880;2022-07-23T06:05:37;1.55;;;1.45;;
12059;SDS011;6091;51.432;6.880;2022-07-23T06:08:09;1.50;;;1.40;;
12059;SDS011;6091;51.432;6.880;2022-07-23T06:10:36;1.50;;;1.40;;
12059;SDS011;6091;51.432;6.880;2022-07-23T06:13:03;1.35;;;1.25;;
12059;SDS011;6091;51.432;6.880;2022-07-23T06:15:34;1.88;;;1.67;;
12059;SDS011;6091;51.432;6.880;2022-07-23T06:18:01;1.60;;;1.50;;
12059;SDS011;6091;51.432;6.880;2022-07-23T06:20:28;1.70;;;1.60;;
12059;SDS011;6091;51.432;6.880;2022-07-23T06:22:58;1.50;;;1.40;;
12059;SDS011;6091;51.432;6.880;2022-07-23T06:25:25;1.80;;;1.70;;
12059;SDS011;6091;51.432;6.880;2022-07-23T06:27:52;1.60;;;1.50;;
12059;SDS011;6091;51.432;6.880;2022-07-23T06:30:19;2.30;;;2.00;;
12059;SDS011;6091;51.432;6.880;2022-07-23T06:32:47;1.70;;;1.50;;
12059;SDS011;6091;51.432;6.880;2022-07-23T06:35:16;2.03;;;1.80;;
12059;SDS011;6091;51.432;6.880;2022-07-23T06:37:44;1.60;;;1.50;;
12059;SDS011;6091;51.432;6.880;2022-07-23T06:40:13;2.15;;;1.60;;
12059;SDS011;6091;51.432;6.880;2022-07-23T06:42:40;2.88;;;2.03;;
12059;SDS011;6091;51.432;6.880;2022-07-23T06:45:08;1.92;;;1.80;;
12059;SDS011;6091;51.432;6.880;2022-07-23T06:47:35;2.67;;;1.80;;
12059;SDS011;6091;51.432;6.880;2022-07-23T06:50:03;1.88;;;1.75;;
12059;SDS011;6091;51.432;6.880;2022-07-23T06:52:31;2.20;;;1.98;;
12059;SDS011;6091;51.432;6.880;2022-07-23T06:54:58;3.30;;;3.00;;
12059;SDS011;6091;51.432;6.880;2022-07-23T06:57:28;2.47;;;2.22;;
12059;SDS011;6091;51.432;6.880;2022-07-23T06:59:59;2.15;;;1.92;;
12059;SDS011;6091;51.432;6.880;2022-07-23T07:02:27;3.20;;;2.92;;
12059;SDS011;6091;51.432;6.880;2022-07-23T07:04:54;3.55;;;3.25;;
12059;SDS011;6091;51.432;6.880;2022-07-23T07:07:30;3.58;;;3.28;;
12059;SDS011;6091;51.432;6.880;2022-07-23T07:09:57;2.85;;;2.15;;
12059;SDS011;6091;51.432;6.880;2022-07-23T07:12:24;2.60;;;2.42;;
12059;SDS011;6091;51.432;6.880;2022-07-23T07:14:51;2.50;;;2.30;;
12059;SDS011;6091;51.432;6.880;2022-07-23T07:17:20;3.25;;;2.40;;
12059;SDS011;6091;51.432;6.880;2022-07-23T07:19:46;2.65;;;2.20;;
12059;SDS011;6091;51.432;6.880;2022-07-23T07:22:13;2.70;;;2.50;;
12059;SDS011;6091;51.432;6.880;2022-07-23T07:24:40;2.53;;;2.33;;
12059;SDS011;6091;51.432;6.880;2022-07-23T07:27:07;2.53;;;2.33;;
12059;SDS011;6091;51.432;6.880;2022-07-23T07:29:34;2.80;;;2.47;;
12059;SDS011;6091;51.432;6.880;2022-07-23T07:32:01;2.15;;;1.95;;
12059;SDS011;6091;51.432;6.880;2022-07-23T07:34:28;2.90;;;2.70;;
12059;SDS011;6091;51.432;6.880;2022-07-23T07:36:55;2.88;;;2.47;;
12059;SDS011;6091;51.432;6.880;2022-07-23T07:39:22;2.78;;;2.30;;
12059;SDS011;6091;51.432;6.880;2022-07-23T07:41:49;3.35;;;3.00;;
12059;SDS011;6091;51.432;6.880;2022-07-23T07:44:17;3.28;;;3.00;;
12059;SDS011;6091;51.432;6.880;2022-07-23T07:46:44;2.72;;;2.53;;
12059;SDS011;6091;51.432;6.880;2022-07-23T07:49:12;4.15;;;3.85;;
12059;SDS011;6091;51.432;6.880;2022-07-23T07:51:41;3.65;;;3.33;;
12059;SDS011;6091;51.432;6.880;2022-07-23T07:54:11;3.17;;;2.88;;
12059;SDS011;6091;51.432;6.880;2022-07-23T07:56:38;3.30;;;2.90;;
12059;SDS011;6091;51.432;6.880;2022-07-23T07:59:07;3.72;;;2.72;;
12059;SDS011;6091;51.432;6.880;2022-07-23T08:01:36;2.85;;;2.55;;
12059;SDS011;6091;51.432;6.880;2022-07-23T08:04:03;5.07;;;3.10;;
12059;SDS011;6091;51.432;6.880;2022-07-23T08:06:31;3.25;;;2.88;;
12059;SDS011;6091;51.432;6.880;2022-07-23T08:08:58;3.63;;;3.33;;
12059;SDS011;6091;51.432;6.880;2022-07-23T08:11:25;2.63;;;2.40;;
12059;SDS011;6091;51.432;6.880;2022-07-23T08:13:52;3.30;;;2.90;;
12059;SDS011;6091;51.432;6.880;2022-07-23T08:16:19;3.03;;;2.83;;
12059;SDS011;6091;51.432;6.880;2022-07-23T08:18:49;3.08;;;2.78;;
12059;SDS011;6091;51.432;6.880;2022-07-23T08:21:16;2.70;;;2.28;;
12059;SDS011;6091;51.432;6.880;2022-07-23T08:23:43;2.75;;;2.53;;
12059;SDS011;6091;51.432;6.880;2022-07-23T08:26:10;4.13;;;2.75;;
12059;SDS011;6091;51.432;6.880;2022-07-23T08:28:38;2.63;;;2.08;;
12059;SDS011;6091;51.432;6.880;2022-07-23T08:31:05;2.30;;;2.10;;
12059;SDS011;6091;51.432;6.880;2022-07-23T08:33:32;2.20;;;2.00;;
12059;SDS011;6091;51.432;6.880;2022-07-23T08:36:00;3.20;;;2.50;;
12059;SDS011;6091;51.432;6.880;2022-07-23T08:38:31;2.15;;;1.95;;
12059;SDS011;6091;51.432;6.880;2022-07-23T08:40:58;2.55;;;2.10;;
12059;SDS011;6091;51.432;6.880;2022-07-23T08:43:26;4.07;;;2.15;;
12059;SDS011;6091;51.432;6.880;2022-07-23T08:45:57;2.92;;;2.17;;
12059;SDS011;6091;51.432;6.880;2022-07-23T08:48:28;4.05;;;1.90;;
12059;SDS011;6091;51.432;6.880;2022-07-23T08:50:58;2.38;;;2.17;;
12059;SDS011;6091;51.432;6.880;2022-07-23T08:53:30;2.10;;;1.95;;
12059;SDS011;6091;51.432;6.880;2022-07-23T08:56:00;2.30;;;2.10;;
12059;SDS011;6091;51.432;6.880;2022-07-23T08:58:29;2.38;;;2.10;;
12059;SDS011;6091;51.432;6.880;2022-07-23T09:00:58;2.17;;;1.98;;
12059;SDS011;6091;51.432;6.880;2022-07-23T09:03:33;2.13;;;1.80;;
12059;SDS011;6091;51.432;6.880;2022-07-23T09:06:05;2.72;;;2.35;;
12059;SDS011;6091;51.432;6.880;2022-07-23T09:11:05;2.53;;;2.28;;
12059;SDS011;6091;51.432;6.880;2022-07-23T09:16:19;1.95;;;1.67;;
12059;SDS011;6091;51.432;6.880;2022-07-23T09:19:03;1.60;;;1.50;;
12059;SDS011;6091;51.432;6.880;2022-07-23T09:21:33;1.90;;;1.42;;
12059;SDS011;6091;51.432;6.880;2022-07-23T09:24:03;1.63;;;1.52;;
12059;SDS011;6091;51.432;6.880;2022-07-23T09:26:39;1.70;;;1.60;;
12059;SDS011;6091;51.432;6.880;2022-07-23T09:31:56;2.08;;;1.92;;
12059;SDS011;6091;51.432;6.880;2022-07-23T09:37:12;1.65;;;1.55;;
12059;SDS011;6091;51.432;6.880;2022-07-23T09:39:45;1.60;;;1.50;;
12059;SDS011;6091;51.432;6.880;2022-07-23T09:42:20;1.70;;;1.60;;
12059;SDS011;6091;51.432;6.880;2022-07-23T09:44:57;2.00;;;1.65;;
12059;SDS011;6091;51.432;6.880;2022-07-23T09:47:26;2.42;;;1.83;;
12059;SDS011;6091;51.432;6.880;2022-07-23T09:50:03;2.03;;;1.80;;
12059;SDS011;6091;51.432;6.880;2022-07-23T09:52:48;2.20;;;1.77;;
12059;SDS011;6091;51.432;6.880;2022-07-23T09:55:18;3.28;;;2.17;;
12059;SDS011;6091;51.432;6.880;2022-07-23T09:57:56;2.58;;;2.03;;
12059;SDS011;6091;51.432;6.880;2022-07-23T10:00:23;2.00;;;1.80;;
12059;SDS011;6091;51.432;6.880;2022-07-23T10:02:51;2.10;;;1.50;;
12059;SDS011;6091;51.432;6.880;2022-07-23T10:05:20;1.60;;;1.35;;
12059;SDS011;6091;51.432;6.880;2022-07-23T10:07:47;2.42;;;1.30;;
12059;SDS011;6091;51.432;6.880;2022-07-23T10:10:18;2.10;;;1.27;;
12059;SDS011;6091;51.432;6.880;2022-07-23T10:12:48;5.05;;;1.92;;
12059;SDS011;6091;51.432;6.880;2022-07-23T10:15:18;2.30;;;1.77;;
12059;SDS011;6091;51.432;6.880;2022-07-23T10:17:45;3.40;;;1.50;;
12059;SDS011;6091;51.432;6.880;2022-07-23T10:20:14;2.35;;;1.33;;
12059;SDS011;6091;51.432;6.880;2022-07-23T10:22:47;3.00;;;1.90;;
12059;SDS011;6091;51.432;6.880;2022-07-23T10:25:52;1.88;;;1.73;;
12059;SDS011;6091;51.432;6.880;2022-07-23T10:35:07;1.88;;;1.50;;
12059;SDS011;6091;51.432;6.880;2022-07-23T10:37:56;1.55;;;1.20;;
12059;SDS011;6091;51.432;6.880;2022-07-23T10:40:36;3.20;;;1.48;;
12059;SDS011;6091;51.432;6.880;2022-07-23T10:43:19;2.10;;;1.48;;
12059;SDS011;6091;51.432;6.880;2022-07-23T10:45:47;1.92;;;1.70;;
12059;SDS011;6091;51.432;6.880;2022-07-23T10:48:16;1.70;;;1.60;;
12059;SDS011;6091;51.432;6.880;2022-07-23T10:59:24;9.15;;;2.75;;
12059;SDS011;6091;51.432;6.880;2022-07-23T11:01:51;5.38;;;2.75;;
12059;SDS011;6091;51.432;6.880;2022-07-23T11:04:18;4.78;;;2.63;;
12059;SDS011;6091;51.432;6.880;2022-07-23T11:17:31;2.03;;;1.63;;
12059;SDS011;6091;51.432;6.880;2022-07-23T11:25:10;1.58;;;1.40;;
12059;SDS011;6091;51.432;6.880;2022-07-23T11:27:41;1.70;;;1.40;;
12059;SDS011;6091;51.432;6.880;2022-07-23T11:30:36;1.23;;;1.10;;
12059;SDS011;6091;51.432;6.880;2022-07-23T11:35:39;3.70;;;1.92;;
12059;SDS011;6091;51.432;6.880;2022-07-23T11:38:14;2.25;;;1.70;;
12059;SDS011;6091;51.432;6.880;2022-07-23T11:40:47;1.83;;;1.73;;
12059;SDS011;6091;51.432;6.880;2022-07-23T11:43:20;2.15;;;1.95;;
12059;SDS011;6091;51.432;6.880;2022-07-23T11:45:50;1.70;;;1.60;;
12059;SDS011;6091;51.432;6.880;2022-07-23T11:48:21;2.60;;;1.52;;
12059;SDS011;6091;51.432;6.880;2022-07-23T11:50:54;2.20;;;1.40;;
12059;SDS011;6091;51.432;6.880;2022-07-23T11:53:26;2.40;;;1.55;;
12059;SDS011;6091;51.432;6.880;2022-07-23T11:56:17;2.00;;;1.60;;
12059;SDS011;6091;51.432;6.880;2022-07-23T11:58:53;1.73;;;1.58;;
12059;SDS011;6091;51.432;6.880;2022-07-23T12:01:25;1.17;;;1.10;;
12059;SDS011;6091;51.432;6.880;2022-07-23T12:03:55;1.65;;;1.55;;
12059;SDS011;6091;51.432;6.880;2022-07-23T12:06:23;1.55;;;1.45;;
12059;SDS011;6091;51.432;6.880;2022-07-23T12:08:50;1.30;;;1.10;;
12059;SDS011;6091;51.432;6.880;2022-07-23T12:11:17;1.58;;;1.48;;
12059;SDS011;6091;51.432;6.880;2022-07-23T12:13:54;2.08;;;1.65;;
12059;SDS011;6091;51.432;6.880;2022-07-23T12:16:23;1.48;;;1.38;;
12059;SDS011;6091;51.432;6.880;2022-07-23T12:18:50;1.90;;;1.67;;
12059;SDS011;6091;51.432;6.880;2022-07-23T12:21:17;1.92;;;1.63;;
12059;SDS011;6091;51.432;6.880;2022-07-23T12:23:47;1.75;;;1.65;;
12059;SDS011;6091;51.432;6.880;2022-07-23T12:26:15;1.33;;;1.27;;
12059;SDS011;6091;51.432;6.880;2022-07-23T12:28:42;1.60;;;1.50;;
12059;SDS011;6091;51.432;6.880;2022-07-23T12:31:25;1.80;;;1.27;;
12059;SDS011;6091;51.432;6.880;2022-07-23T12:33:53;2.00;;;1.90;;
12059;SDS011;6091;51.432;6.880;2022-07-23T12:36:36;2.45;;;1.50;;
12059;SDS011;6091;51.432;6.880;2022-07-23T12:39:10;1.63;;;1.40;;
12059;SDS011;6091;51.432;6.880;2022-07-23T12:41:52;1.58;;;1.30;;
12059;SDS011;6091;51.432;6.880;2022-07-23T12:44:20;1.42;;;1.33;;
12059;SDS011;6091;51.432;6.880;2022-07-23T12:46:51;1.50;;;1.40;;
12059;SDS011;6091;51.432;6.880;2022-07-23T12:49:25;1.48;;;1.35;;
12059;SDS011;6091;51.432;6.880;2022-07-23T12:51:55;1.40;;;1.30;;
12059;SDS011;6091;51.432;6.880;2022-07-23T12:54:26;1.55;;;1.45;;
12059;SDS011;6091;51.432;6.880;2022-07-23T12:56:54;1.40;;;1.30;;
12059;SDS011;6091;51.432;6.880;2022-07-23T12:59:21;1.30;;;1.17;;
12059;SDS011;6091;51.432;6.880;2022-07-23T13:01:55;1.67;;;1.52;;
12059;SDS011;6091;51.432;6.880;2022-07-23T13:04:28;2.72;;;1.35;;
12059;SDS011;6091;51.432;6.880;2022-07-23T13:06:56;2.03;;;1.55;;
12059;SDS011;6091;51.432;6.880;2022-07-23T13:09:31;2.75;;;1.30;;
12059;SDS011;6091;51.432;6.880;2022-07-23T13:12:07;1.65;;;1.55;;
12059;SDS011;6091;51.432;6.880;2022-07-23T13:14:36;1.50;;;1.40;;
12059;SDS011;6091;51.432;6.880;2022-07-23T13:17:04;2.28;;;1.88;;
12059;SDS011;6091;51.432;6.880;2022-07-23T13:19:32;1.98;;;1.67;;
12059;SDS011;6091;51.432;6.880;2022-07-23T13:22:00;2.47;;;1.48;;
12059;SDS011;6091;51.432;6.880;2022-07-23T13:24:34;3.15;;;1.48;;
12059;SDS011;6091;51.432;6.880;2022-07-23T13:27:05;1.55;;;1.45;;
12059;SDS011;6091;51.432;6.880;2022-07-23T13:29:38;2.55;;;1.70;;
12059;SDS011;6091;51.432;6.880;2022-07-23T13:32:05;1.73;;;1.63;;
12059;SDS011;6091;51.432;6.880;2022-07-23T13:34:38;2.72;;;1.80;;
12059;SDS011;6091;51.432;6.880;2022-07-23T13:37:07;1.60;;;1.50;;
12059;SDS011;6091;51.432;6.880;2022-07-23T13:39:34;2.15;;;1.70;;
12059;SDS011;6091;51.432;6.880;2022-07-23T13:42:04;3.22;;;1.85;;
12059;SDS011;6091;51.432;6.880;2022-07-23T13:44:33;2.22;;;1.85;;
12059;SDS011;6091;51.432;6.880;2022-07-23T13:47:01;1.77;;;1.60;;
12059;SDS011;6091;51.432;6.880;2022-07-23T13:49:30;1.70;;;1.60;;
12059;SDS011;6091;51.432;6.880;2022-07-23T13:51:57;2.15;;;1.73;;
12059;SDS011;6091;51.432;6.880;2022-07-23T13:54:24;1.83;;;1.67;;
12059;SDS011;6091;51.432;6.880;2022-07-23T13:57:11;2.38;;;1.95;;
12059;SDS011;6091;51.432;6.880;2022-07-23T13:59:39;1.98;;;1.77;;
12059;SDS011;6091;51.432;6.880;2022-07-23T14:02:06;2.15;;;1.83;;
12059;SDS011;6091;51.432;6.880;2022-07-23T14:04:47;2.00;;;1.90;;
12059;SDS011;6091;51.432;6.880;2022-07-23T14:07:16;2.13;;;2.00;;
12059;SDS011;6091;51.432;6.880;2022-07-23T14:09:45;2.70;;;2.50;;
12059;SDS011;6091;51.432;6.880;2022-07-23T14:12:12;3.00;;;2.30;;
12059;SDS011;6091;51.432;6.880;2022-07-23T14:14:43;2.53;;;2.33;;
12059;SDS011;6091;51.432;6.880;2022-07-23T14:17:10;2.47;;;2.28;;
12059;SDS011;6091;51.432;6.880;2022-07-23T14:19:38;2.92;;;2.10;;
12059;SDS011;6091;51.432;6.880;2022-07-23T14:22:05;3.35;;;2.47;;
12059;SDS011;6091;51.432;6.880;2022-07-23T14:24:33;3.15;;;2.10;;
12059;SDS011;6091;51.432;6.880;2022-07-23T14:27:01;2.08;;;1.98;;
12059;SDS011;6091;51.432;6.880;2022-07-23T14:29:31;2.60;;;2.25;;
12059;SDS011;6091;51.432;6.880;2022-07-23T14:32:02;2.08;;;1.95;;
12059;SDS011;6091;51.432;6.880;2022-07-23T14:34:29;2.38;;;2.08;;
12059;SDS011;6091;51.432;6.880;2022-07-23T14:36:57;1.90;;;1.80;;
12059;SDS011;6091;51.432;6.880;2022-07-23T14:39:29;2.30;;;1.80;;
12059;SDS011;6091;51.432;6.880;2022-07-23T14:41:56;2.45;;;2.20;;
12059;SDS011;6091;51.432;6.880;2022-07-23T14:44:26;2.25;;;1.80;;
12059;SDS011;6091;51.432;6.880;2022-07-23T14:46:53;2.30;;;1.88;;
12059;SDS011;6091;51.432;6.880;2022-07-23T14:49:21;2.50;;;2.30;;
12059;SDS011;6091;51.432;6.880;2022-07-23T14:51:52;3.42;;;2.17;;
12059;SDS011;6091;51.432;6.880;2022-07-23T14:54:19;5.13;;;2.60;;
12059;SDS011;6091;51.432;6.880;2022-07-23T14:56:46;2.33;;;2.13;;
12059;SDS011;6091;51.432;6.880;2022-07-23T14:59:14;2.42;;;2.22;;
12059;SDS011;6091;51.432;6.880;2022-07-23T15:01:42;2.60;;;2.28;;
12059;SDS011;6091;51.432;6.880;2022-07-23T15:04:11;2.60;;;2.30;;
12059;SDS011;6091;51.432;6.880;2022-07-23T15:06:58;2.38;;;2.13;;
12059;SDS011;6091;51.432;6.880;2022-07-23T15:09:26;2.60;;;2.40;;
12059;SDS011;6091;51.432;6.880;2022-07-23T15:11:54;2.63;;;2.30;;
12059;SDS011;6091;51.432;6.880;2022-07-23T15:14:22;4.32;;;2.45;;
12059;SDS011;6091;51.432;6.880;2022-07-23T15:16:56;2.85;;;2.15;;
12059;SDS011;6091;51.432;6.880;2022-07-23T15:19:24;2.40;;;2.20;;
12059;SDS011;6091;51.432;6.880;2022-07-23T15:21:55;3.28;;;2.45;;
12059;SDS011;6091;51.432;6.880;2022-07-23T15:24:23;2.50;;;2.30;;
12059;SDS011;6091;51.432;6.880;2022-07-23T15:26:50;2.80;;;2.40;;
12059;SDS011;6091;51.432;6.880;2022-07-23T15:29:17;2.42;;;2.22;;
12059;SDS011;6091;51.432;6.880;2022-07-23T15:31:46;2.55;;;2.35;;
12059;SDS011;6091;51.432;6.880;2022-07-23T15:34:23;4.63;;;2.47;;
12059;SDS011;6091;51.432;6.880;2022-07-23T15:36:51;2.83;;;2.20;;
12059;SDS011;6091;51.432;6.880;2022-07-23T15:39:18;2.47;;;2.08;;
12059;SDS011;6091;51.432;6.880;2022-07-23T15:41:45;2.13;;;1.92;;
12059;SDS011;6091;51.432;6.880;2022-07-23T15:44:13;3.38;;;2.05;;
12059;SDS011;6091;51.432;6.880;2022-07-23T15:46:55;2.28;;;2.08;;
12059;SDS011;6091;51.432;6.880;2022-07-23T15:49:25;2.47;;;2.28;;
12059;SDS011;6091;51.432;6.880;2022-07-23T15:51:53;2.58;;;2.30;;
12059;SDS011;6091;51.432;6.880;2022-07-23T15:54:21;2.35;;;2.08;;
12059;SDS011;6091;51.432;6.880;2022-07-23T15:56:48;3.75;;;2.45;;